Owen, Kentucky
Current Conditions -  °F | °C
As of 7:53 AM on Saturday 20 Dec 2014 (Local Time) from KFFT Reporting Station
Overcast Overcast  
Wind Chill: 28°   Ceiling: 8000
Heat Index: 28°   Visibility: 9mi
Dew Point: 23°   Wind: 3mph
Humidity: 81%   Direction: 10°N
Pressure: 30.27"   Gusts: NA
Location:  38.5364°N, 84.5918°W
Report Text: KFFT 201253Z AUTO 01003KT 9SM BKN080 OVC100 M02/M05 A3027 RMK AO2 SLP258 T10221050
Loading
Personal Weather Stations






























Interactive Weather Map New forecast layout! Learn more

10-Day Weather Forecast

Advertisements
Track Severe Weather on mobile